Belfast, Maine
Current Conditions -  °F | °C
As of 9:35 PM on Saturday 22 Nov 2014 (Local Time) from KRKD Reporting Station
Scattered Clouds Scattered Clouds  
Wind Chill: 35°   Ceiling: Unl
Heat Index: 43°   Visibility: 10mi
Dew Point: 25°   Wind: 17mph
Humidity: 49%   Direction: 240°WSW
Pressure: 29.92"   Gusts: 26mph
Location:  44.42°N, 69.02°W
Report Text: KRKD 230235Z AUTO 24015G23KT 10SM SCT085 06/M04 A2992 RMK AO1
Loading
Personal Weather Stations






























Interactive Weather Map New forecast layout! Learn more

10-Day Weather Forecast

Advertisements
Track Severe Weather on mobile